X  Cerrar Datos meteorológicos de aviación METAR     LGTS Thessaloniki Macedonia International Airport
Temperatura
29°C Temperatura
19°C Punto de rocío
55% Humedad



Viento
0 M/S
1 MPH
2 KM/H
1 NUDO



Calma
N
Condiciones actuales

Parcialmente nublado Parcialmente nublado
Presión 1009.82 (hPa) - 29.82 (inHg)
Visibilidad 6 (milla) - 9.7 (km)
Aeropuerto
Código de aeropuerto LGTS

localidad: Thessaloniki Macedonia International Airport
Distancia: 85 (km)

Metar:
LGTS 240520Z VRB01KT 9999 FEW030 29/19 Q1010 NOSIG

Hora: 24-07-2024 08:20 EEST